Time;durP1;ratioP1;P1;durP2;ratioP2;P2;SDS_P1;SDS_P2;PMS_P1;PMS_P2;Temp;Humidity;BMP_temperature;BMP_pressure;BME280_temperature;BME280_humidity;BME280_pressure;Samples;Min_cycle;Max_cycle;Signal;HPM_P1;HPM_P2
2022/02/14 00:01:23;;;;;;;5.78;2.90;;;6.40;99.90;;;;;;6281257;22;20007;-93
2022/02/14 00:03:49;;;;;;;8.93;2.58;;;6.40;99.90;;;;;;6282277;22;20007;-92
2022/02/14 00:06:15;;;;;;;4.95;2.60;;;6.40;99.90;;;;;;6286342;22;20512;-94
2022/02/14 00:08:42;;;;;;;7.10;3.00;;;6.40;99.90;;;;;;6284820;22;20007;-91
2022/02/14 00:11:07;;;;;;;4.22;2.85;;;6.40;99.90;;;;;;6286117;22;20338;-94
2022/02/14 00:13:33;;;;;;;7.22;3.95;;;6.40;99.90;;;;;;6285742;22;19999;-93
2022/02/14 00:15:59;;;;;;;6.68;3.53;;;6.40;99.90;;;;;;6285551;22;20027;-93
2022/02/14 00:18:24;;;;;;;4.68;3.60;;;6.40;99.90;;;;;;6284807;22;20025;-93
2022/02/14 00:20:50;;;;;;;9.18;3.47;;;6.40;99.90;;;;;;6285091;22;20058;-93
2022/02/14 00:23:16;;;;;;;9.82;3.97;;;6.40;99.90;;;;;;6284734;22;20029;-92
2022/02/14 00:25:41;;;;;;;6.95;4.60;;;6.40;99.90;;;;;;6284877;22;20450;-93
2022/02/14 00:28:08;;;;;;;8.10;4.93;;;6.40;99.90;;;;;;6285056;22;20058;-93
2022/02/14 00:30:35;;;;;;;8.02;4.70;;;6.40;99.90;;;;;;6284595;22;20030;-93
2022/02/14 00:33:00;;;;;;;12.63;5.32;;;6.40;99.90;;;;;;6284647;22;20095;-90
2022/02/14 00:35:26;;;;;;;6.88;4.75;;;6.40;99.90;;;;;;6284794;22;20000;-93
2022/02/14 00:37:53;;;;;;;7.60;5.35;;;6.30;99.90;;;;;;6285076;22;20033;-92
2022/02/14 00:40:19;;;;;;;7.00;4.95;;;6.30;99.90;;;;;;6285071;22;20006;-92
2022/02/14 00:42:45;;;;;;;5.88;3.90;;;6.30;99.90;;;;;;6284890;22;20007;-94
2022/02/14 00:45:11;;;;;;;6.00;4.40;;;6.30;99.90;;;;;;6285357;22;20003;-92
2022/02/14 00:47:38;;;;;;;5.47;3.78;;;6.30;99.90;;;;;;6284256;22;20057;-93
2022/02/14 00:50:04;;;;;;;4.55;3.38;;;6.30;99.90;;;;;;6284427;22;20010;-92
2022/02/14 00:52:30;;;;;;;6.10;4.07;;;6.30;99.90;;;;;;6284679;22;20008;-94
2022/02/14 00:54:57;;;;;;;8.68;3.58;;;6.30;99.90;;;;;;6284807;22;20003;-92
2022/02/14 00:57:24;;;;;;;6.93;3.83;;;6.30;99.90;;;;;;6285822;22;20498;-94
2022/02/14 00:59:50;;;;;;;5.68;3.25;;;6.30;99.90;;;;;;6284757;22;20061;-93
2022/02/14 01:02:16;;;;;;;6.13;3.75;;;6.30;99.90;;;;;;6284671;22;20008;-92
2022/02/14 01:04:42;;;;;;;5.78;3.45;;;6.30;99.90;;;;;;6284725;22;20010;-92
2022/02/14 01:07:07;;;;;;;4.22;2.95;;;6.30;99.90;;;;;;6285117;22;20062;-92
2022/02/14 01:09:33;;;;;;;11.02;3.13;;;6.30;99.90;;;;;;6284711;22;20444;-91
2022/02/14 01:11:59;;;;;;;5.43;2.83;;;6.30;99.90;;;;;;6284997;22;20082;-93
2022/02/14 01:14:24;;;;;;;4.10;2.70;;;6.30;99.90;;;;;;6284427;22;20014;-93
2022/02/14 01:16:50;;;;;;;4.65;2.53;;;6.30;99.90;;;;;;6284206;22;20010;-94
2022/02/14 01:19:16;;;;;;;4.90;2.67;;;6.30;99.90;;;;;;6285210;22;20017;-93
2022/02/14 01:21:42;;;;;;;4.78;2.47;;;6.30;99.90;;;;;;6297521;22;20003;-92
2022/02/14 01:24:08;;;;;;;3.55;2.05;;;6.30;99.90;;;;;;6290448;22;20011;-92
2022/02/14 01:26:34;;;;;;;6.80;2.80;;;6.30;99.90;;;;;;6286972;22;20482;-92
2022/02/14 01:28:59;;;;;;;6.55;2.78;;;6.30;99.90;;;;;;6284354;22;20023;-91
2022/02/14 01:31:26;;;;;;;6.50;2.58;;;6.30;99.90;;;;;;6284201;22;20007;-92
2022/02/14 01:33:51;;;;;;;5.55;2.63;;;6.30;99.90;;;;;;6283304;22;20008;-93
2022/02/14 01:36:18;;;;;;;7.00;2.97;;;6.30;99.90;;;;;;6283401;22;20300;-92
2022/02/14 01:38:44;;;;;;;5.65;3.00;;;6.30;99.90;;;;;;6283607;22;20380;-92
2022/02/14 01:41:09;;;;;;;6.82;3.17;;;6.30;99.90;;;;;;6283742;22;20003;-92
2022/02/14 01:43:35;;;;;;;6.35;2.88;;;6.30;99.90;;;;;;6283296;22;20056;-92
2022/02/14 01:46:01;;;;;;;7.35;2.70;;;6.30;99.90;;;;;;6282727;22;20046;-92
2022/02/14 01:48:27;;;;;;;6.03;3.47;;;6.30;99.90;;;;;;6283463;22;20007;-92
2022/02/14 01:50:53;;;;;;;4.97;3.30;;;6.30;99.90;;;;;;6283273;22;20014;-92
2022/02/14 01:53:19;;;;;;;7.43;2.90;;;6.30;99.90;;;;;;6283228;22;20007;-92
2022/02/14 01:55:45;;;;;;;2.78;2.25;;;6.30;99.90;;;;;;6282254;22;20010;-92
2022/02/14 01:58:11;;;;;;;6.57;3.00;;;6.30;99.90;;;;;;6282034;22;20011;-92
2022/02/14 02:00:37;;;;;;;8.13;3.63;;;6.30;99.90;;;;;;6281673;22;20385;-92
2022/02/14 02:03:03;;;;;;;9.70;4.18;;;6.20;99.90;;;;;;6282003;22;20427;-93
2022/02/14 02:05:28;;;;;;;4.72;4.18;;;6.20;99.90;;;;;;6281934;22;20030;-92
2022/02/14 02:07:54;;;;;;;5.82;4.10;;;6.20;99.90;;;;;;6282202;22;20003;-92
2022/02/14 02:10:21;;;;;;;5.05;4.38;;;6.20;99.90;;;;;;6282853;22;20010;-92
2022/02/14 02:12:52;;;;;;;6.22;4.93;;;6.20;99.90;;;;;;6282998;22;20086;-91
2022/02/14 02:15:18;;;;;;;5.65;3.88;;;6.20;99.90;;;;;;6283180;22;20003;-92
2022/02/14 02:17:44;;;;;;;4.53;3.00;;;6.20;99.90;;;;;;6283081;22;20043;-93
2022/02/14 02:20:15;;;;;;;4.90;3.03;;;6.10;99.90;;;;;;6282662;22;19999;-93
2022/02/14 02:22:43;;;;;;;3.20;2.38;;;6.10;99.90;;;;;;6281946;22;19999;-94
2022/02/14 02:25:09;;;;;;;4.22;1.60;;;6.10;99.90;;;;;;6282395;22;20304;-93
2022/02/14 02:27:35;;;;;;;6.30;2.33;;;6.10;99.90;;;;;;6281613;22;20011;-91
2022/02/14 02:30:04;;;;;;;2.67;1.55;;;6.10;99.90;;;;;;6282625;22;20001;-93
2022/02/14 02:32:31;;;;;;;3.85;1.63;;;6.10;99.90;;;;;;6281955;22;20065;-93
2022/02/14 02:35:00;;;;;;;3.40;1.23;;;6.00;99.90;;;;;;6285548;22;20003;-93
2022/02/14 02:37:25;;;;;;;3.30;1.08;;;6.00;99.90;;;;;;6290969;22;20007;-91
2022/02/14 02:39:51;;;;;;;2.53;1.27;;;6.00;99.90;;;;;;6296321;22;20003;-93
2022/02/14 02:42:19;;;;;;;2.42;1.40;;;5.90;99.90;;;;;;6285240;22;20003;-93
2022/02/14 02:44:46;;;;;;;1.50;1.23;;;5.90;99.90;;;;;;6286152;22;20004;-92
2022/02/14 02:47:14;;;;;;;4.07;1.48;;;5.90;99.90;;;;;;6285793;22;20007;-93
2022/02/14 02:49:41;;;;;;;2.63;1.15;;;5.90;99.90;;;;;;6285843;22;20003;-92
2022/02/14 02:52:09;;;;;;;3.63;1.40;;;5.90;99.90;;;;;;6285853;22;20090;-92
2022/02/14 02:54:35;;;;;;;2.40;1.23;;;5.90;99.90;;;;;;6283836;22;20003;-93
2022/02/14 02:57:02;;;;;;;2.50;1.30;;;5.90;99.90;;;;;;6284322;22;19999;-93
2022/02/14 02:59:30;;;;;;;1.15;1.02;;;5.90;99.90;;;;;;6283896;22;20090;-92
2022/02/14 03:01:55;;;;;;;4.00;1.20;;;5.90;99.90;;;;;;6283349;22;20061;-94
2022/02/14 03:04:22;;;;;;;2.80;1.13;;;5.90;99.90;;;;;;6282264;22;20009;-92
2022/02/14 03:06:48;;;;;;;2.13;0.80;;;5.90;99.90;;;;;;6282119;22;20019;-91
2022/02/14 03:09:20;;;;;;;3.90;1.40;;;5.90;99.90;;;;;;6284055;22;19999;-93
2022/02/14 03:11:48;;;;;;;1.13;0.90;;;5.90;99.90;;;;;;6283546;22;20061;-94
2022/02/14 03:14:14;;;;;;;4.10;1.20;;;5.90;99.90;;;;;;6281827;22;20050;-93
2022/02/14 03:16:41;;;;;;;3.25;1.13;;;5.80;99.90;;;;;;6281350;22;20446;-92
2022/02/14 03:19:07;;;;;;;2.22;1.30;;;5.80;99.90;;;;;;6281521;22;20094;-91
2022/02/14 03:21:34;;;;;;;2.53;1.40;;;5.90;99.90;;;;;;6281402;22;20003;-92
2022/02/14 03:24:00;;;;;;;3.15;1.25;;;5.90;99.90;;;;;;6280881;22;20035;-93
2022/02/14 03:26:26;;;;;;;3.58;1.50;;;5.90;99.90;;;;;;6281295;22;20015;-94
2022/02/14 03:28:54;;;;;;;2.17;1.67;;;5.80;99.90;;;;;;6280748;22;20386;-93
2022/02/14 03:31:20;;;;;;;3.22;1.15;;;5.80;99.90;;;;;;6281283;22;20007;-93
2022/02/14 03:33:46;;;;;;;4.47;1.65;;;5.90;99.90;;;;;;6279494;22;20011;-94
2022/02/14 03:36:14;;;;;;;3.08;1.63;;;5.80;99.90;;;;;;6281216;22;20060;-93
2022/02/14 03:38:42;;;;;;;3.42;2.28;;;5.80;99.90;;;;;;6280910;22;20006;-92
2022/02/14 03:41:08;;;;;;;4.07;1.55;;;5.90;99.90;;;;;;6281793;22;20013;-92
2022/02/14 03:43:34;;;;;;;2.63;1.55;;;5.80;99.90;;;;;;6281088;22;19999;-92
2022/02/14 03:45:59;;;;;;;4.65;2.40;;;5.80;99.90;;;;;;6281242;22;20018;-93
2022/02/14 03:48:25;;;;;;;5.15;1.88;;;5.80;99.90;;;;;;6281357;22;20011;-93
2022/02/14 03:50:55;;;;;;;9.65;2.03;;;5.80;99.90;;;;;;6281560;22;20343;-93
2022/02/14 03:53:22;;;;;;;3.67;1.75;;;5.80;99.90;;;;;;6281949;22;20000;-92
2022/02/14 03:55:48;;;;;;;2.55;1.65;;;5.80;99.90;;;;;;6301962;22;20035;-92
2022/02/14 03:58:13;;;;;;;6.18;1.60;;;5.80;99.90;;;;;;6285045;22;20050;-92
2022/02/14 04:00:39;;;;;;;3.63;1.83;;;5.80;99.90;;;;;;6282148;22;20007;-93
2022/02/14 04:03:05;;;;;;;3.95;1.60;;;5.80;99.90;;;;;;6282408;22;20011;-94
2022/02/14 04:05:31;;;;;;;7.05;1.50;;;5.70;99.90;;;;;;6282857;22;20034;-92
2022/02/14 04:07:58;;;;;;;4.38;2.05;;;5.80;99.90;;;;;;6282171;22;19999;-94
2022/02/14 04:10:26;;;;;;;6.88;1.92;;;5.80;99.90;;;;;;6283679;22;20007;-93
2022/02/14 04:12:53;;;;;;;5.93;1.70;;;5.70;99.90;;;;;;6282847;22;20007;-92
2022/02/14 04:15:19;;;;;;;7.15;1.75;;;5.80;99.90;;;;;;6281590;22;20006;-93
2022/02/14 04:17:45;;;;;;;4.68;1.55;;;5.80;99.90;;;;;;6281550;22;20007;-92
2022/02/14 04:20:12;;;;;;;2.95;1.42;;;5.80;99.90;;;;;;6255904;22;20079;-91
2022/02/14 04:22:40;;;;;;;4.43;1.52;;;5.70;99.90;;;;;;6280890;22;20095;-93
2022/02/14 04:25:07;;;;;;;2.33;1.20;;;5.70;99.90;;;;;;6280774;22;20034;-93
2022/02/14 04:27:32;;;;;;;2.72;1.05;;;5.70;99.90;;;;;;6280567;22;20007;-92
2022/02/14 04:29:58;;;;;;;8.00;1.45;;;5.70;99.90;;;;;;6280918;22;20026;-91
2022/02/14 04:32:23;;;;;;;3.67;0.68;;;5.60;99.90;;;;;;6280576;22;20145;-91
2022/02/14 04:34:49;;;;;;;5.63;1.02;;;5.60;99.90;;;;;;6280818;22;20008;-92
2022/02/14 04:37:16;;;;;;;5.10;1.45;;;5.60;99.90;;;;;;6280880;22;20007;-91
2022/02/14 04:39:42;;;;;;;3.08;1.42;;;5.50;99.90;;;;;;6280758;22;20006;-92
2022/02/14 04:42:08;;;;;;;4.43;1.13;;;5.50;99.90;;;;;;6281212;22;20007;-91
2022/02/14 04:44:33;;;;;;;5.00;1.17;;;5.50;99.90;;;;;;6281592;22;20357;-92
2022/02/14 04:46:59;;;;;;;7.43;1.42;;;5.50;99.90;;;;;;6281201;22;20011;-92
2022/02/14 04:49:25;;;;;;;3.45;1.10;;;5.50;99.90;;;;;;6280631;22;20480;-92
2022/02/14 04:51:50;;;;;;;8.82;1.35;;;5.50;99.90;;;;;;6281391;22;20458;-92
2022/02/14 04:54:16;;;;;;;3.35;1.10;;;5.50;99.90;;;;;;6281199;22;20056;-90
2022/02/14 04:56:42;;;;;;;3.70;0.90;;;5.50;99.90;;;;;;6283446;22;20003;-91
2022/02/14 04:59:09;;;;;;;3.58;1.38;;;5.50;99.90;;;;;;6283052;22;20010;-93
2022/02/14 05:01:35;;;;;;;2.40;0.90;;;5.50;99.90;;;;;;6282680;22;20011;-93
2022/02/14 05:04:00;;;;;;;4.72;1.10;;;5.50;99.90;;;;;;6282639;22;20126;-92
2022/02/14 05:06:26;;;;;;;2.28;0.90;;;5.40;99.90;;;;;;6282877;22;20368;-91
2022/02/14 05:08:52;;;;;;;5.80;1.25;;;5.40;99.90;;;;;;6282881;22;20461;-91
2022/02/14 05:11:18;;;;;;;5.43;0.80;;;5.40;99.90;;;;;;6283880;22;20003;-92
2022/02/14 05:13:45;;;;;;;2.83;0.93;;;5.40;99.90;;;;;;6297933;22;20027;-93
2022/02/14 05:16:11;;;;;;;4.72;0.70;;;5.40;99.90;;;;;;6285293;22;20003;-92
2022/02/14 05:18:37;;;;;;;1.92;1.17;;;5.40;99.90;;;;;;6283852;22;19999;-93
2022/02/14 05:21:04;;;;;;;2.85;1.10;;;5.40;99.90;;;;;;6283674;22;20011;-92
2022/02/14 05:23:30;;;;;;;4.40;1.60;;;5.40;99.90;;;;;;6283235;22;20007;-91
2022/02/14 05:25:55;;;;;;;6.63;1.50;;;5.40;99.90;;;;;;6282849;22;20014;-91
2022/02/14 05:28:21;;;;;;;3.30;1.17;;;5.40;99.90;;;;;;6282588;22;19996;-91
2022/02/14 05:30:47;;;;;;;3.78;1.15;;;5.40;99.90;;;;;;6282229;22;20078;-92
2022/02/14 05:33:13;;;;;;;1.27;1.13;;;5.40;99.90;;;;;;6282366;22;20018;-93
2022/02/14 05:35:39;;;;;;;5.68;1.35;;;5.40;99.90;;;;;;6281987;22;20003;-92
2022/02/14 05:38:07;;;;;;;6.88;1.40;;;5.40;99.90;;;;;;6281731;22;20031;-91
2022/02/14 05:40:33;;;;;;;3.30;1.00;;;5.50;99.90;;;;;;6282348;22;19999;-93
2022/02/14 05:42:58;;;;;;;8.07;1.40;;;5.40;99.90;;;;;;6282312;22;20007;-93
2022/02/14 05:45:24;;;;;;;6.88;1.65;;;5.50;99.90;;;;;;6283194;22;20499;-90
2022/02/14 05:47:50;;;;;;;3.22;0.95;;;5.50;99.90;;;;;;6282219;22;20007;-92
2022/02/14 05:50:15;;;;;;;3.08;0.73;;;5.50;99.90;;;;;;6282957;22;20399;-91
2022/02/14 05:52:44;;;;;;;2.95;1.08;;;5.50;99.90;;;;;;6309196;22;20369;-90
2022/02/14 05:55:10;;;;;;;0.82;0.45;;;5.50;99.90;;;;;;6281705;22;20007;-92
2022/02/14 05:57:36;;;;;;;2.08;0.65;;;5.50;99.90;;;;;;6283094;22;20007;-92
2022/02/14 06:00:05;;;;;;;2.22;0.50;;;5.40;99.90;;;;;;6282328;22;20082;-91
2022/02/14 06:02:30;;;;;;;4.07;0.70;;;5.40;99.90;;;;;;6283547;22;20029;-92
2022/02/14 06:04:56;;;;;;;2.78;0.82;;;5.40;99.90;;;;;;6285766;22;19999;-91
2022/02/14 06:07:21;;;;;;;2.70;1.05;;;5.40;99.90;;;;;;6288838;22;20075;-89
2022/02/14 06:09:47;;;;;;;5.43;1.20;;;5.40;99.90;;;;;;6289208;22;20007;-91
2022/02/14 06:12:13;;;;;;;4.85;1.00;;;5.40;99.90;;;;;;6287530;22;20453;-90
2022/02/14 06:14:39;;;;;;;5.28;1.00;;;5.40;99.90;;;;;;6285389;22;20004;-91
2022/02/14 06:17:04;;;;;;;2.50;0.85;;;5.40;99.90;;;;;;6282106;22;20030;-91
2022/02/14 06:19:31;;;;;;;2.25;0.70;;;5.40;99.90;;;;;;6281744;22;20003;-91
2022/02/14 06:21:57;;;;;;;2.30;0.95;;;5.40;99.90;;;;;;6282020;22;19999;-90
2022/02/14 06:24:23;;;;;;;7.57;1.30;;;5.40;99.90;;;;;;6282311;22;20003;-92
2022/02/14 06:26:49;;;;;;;4.18;1.48;;;5.40;99.90;;;;;;6281593;22;20507;-91
2022/02/14 06:29:14;;;;;;;5.18;1.20;;;5.40;99.90;;;;;;6282399;22;20003;-91
2022/02/14 06:31:41;;;;;;;6.50;1.52;;;5.40;99.90;;;;;;6297722;22;19992;-91
2022/02/14 06:34:07;;;;;;;7.63;1.35;;;5.40;99.90;;;;;;6285371;22;20003;-91
2022/02/14 06:36:32;;;;;;;3.72;1.50;;;5.40;99.90;;;;;;6282686;22;20008;-90
2022/02/14 06:39:02;;;;;;;5.60;1.30;;;5.40;99.90;;;;;;6282750;22;20003;-90
2022/02/14 06:41:28;;;;;;;3.55;1.10;;;5.40;99.90;;;;;;6282316;22;20003;-90
2022/02/14 06:43:54;;;;;;;4.13;1.42;;;5.40;99.90;;;;;;6282405;22;20037;-91
2022/02/14 06:46:21;;;;;;;5.50;1.70;;;5.40;99.90;;;;;;6283189;22;20007;-92
2022/02/14 06:48:47;;;;;;;3.58;1.58;;;5.40;99.90;;;;;;6291424;22;20003;-90
2022/02/14 06:51:13;;;;;;;5.53;1.27;;;5.30;99.90;;;;;;6281106;22;20042;-90
2022/02/14 06:53:39;;;;;;;6.05;1.10;;;5.40;99.90;;;;;;6281645;22;20003;-90
2022/02/14 06:56:06;;;;;;;4.75;1.08;;;5.40;99.90;;;;;;6281479;22;20072;-90
2022/02/14 06:58:39;;;;;;;2.22;1.33;;;5.30;99.90;;;;;;6308990;22;20006;-91
2022/02/14 07:01:07;;;;;;;6.20;1.58;;;5.30;99.90;;;;;;6281463;22;20462;-91
2022/02/14 07:03:34;;;;;;;7.32;1.42;;;5.30;99.90;;;;;;6280698;22;20014;-92
2022/02/14 07:05:59;;;;;;;0.88;0.65;;;5.30;99.90;;;;;;6281148;22;20007;-92
2022/02/14 07:08:25;;;;;;;1.30;0.47;;;5.30;99.90;;;;;;6281147;22;19995;-91
2022/02/14 07:10:51;;;;;;;0.43;0.30;;;5.20;99.90;;;;;;6280967;22;20027;-90
2022/02/14 07:13:17;;;;;;;1.67;0.38;;;5.20;99.90;;;;;;6280663;22;20003;-92
2022/02/14 07:15:44;;;;;;;2.03;0.70;;;5.20;99.90;;;;;;6280751;22;20014;-92
2022/02/14 07:18:11;;;;;;;2.50;0.55;;;5.10;99.90;;;;;;6280089;22;19999;-91
2022/02/14 07:20:37;;;;;;;0.68;0.40;;;5.10;99.90;;;;;;6281113;22;20050;-93
2022/02/14 07:23:04;;;;;;;1.30;0.38;;;5.00;99.90;;;;;;6280916;22;20003;-92
2022/02/14 07:25:29;;;;;;;3.30;0.45;;;5.00;99.90;;;;;;6281142;22;20087;-92
2022/02/14 07:27:55;;;;;;;0.80;0.40;;;5.00;99.90;;;;;;6280612;22;20014;-90
2022/02/14 07:30:21;;;;;;;0.20;0.17;;;5.00;99.90;;;;;;6278466;22;20006;-92
2022/02/14 07:32:47;;;;;;;0.10;0.10;;;4.90;99.90;;;;;;6306073;22;20011;-91
2022/02/14 07:35:13;;;;;;;0.38;0.25;;;4.90;99.90;;;;;;6279950;22;20003;-90
2022/02/14 07:37:40;;;;;;;1.77;0.28;;;4.90;99.90;;;;;;6279822;22;20472;-90
2022/02/14 07:40:10;;;;;;;0.95;0.20;;;4.90;99.90;;;;;;6280004;22;20144;-90
2022/02/14 07:42:36;;;;;;;0.80;0.43;;;4.90;99.90;;;;;;6280003;22;20110;-91
2022/02/14 07:45:03;;;;;;;1.35;0.20;;;4.90;99.90;;;;;;6280298;22;20004;-90
2022/02/14 07:47:29;;;;;;;0.17;0.17;;;4.90;99.90;;;;;;6287913;22;20012;-92
2022/02/14 07:49:55;;;;;;;0.32;0.20;;;4.90;99.90;;;;;;6289738;22;20006;-91
2022/02/14 07:52:21;;;;;;;1.15;0.30;;;4.90;99.90;;;;;;6310655;22;20017;-92
2022/02/14 07:54:47;;;;;;;0.40;0.30;;;4.90;99.90;;;;;;6282218;22;20102;-91
2022/02/14 07:57:12;;;;;;;1.08;0.25;;;4.90;99.90;;;;;;6282516;22;20000;-91
2022/02/14 07:59:38;;;;;;;0.60;0.30;;;5.00;99.90;;;;;;6282347;22;20027;-92
2022/02/14 08:02:04;;;;;;;1.48;0.30;;;5.00;99.90;;;;;;6282396;22;20018;-90
2022/02/14 08:04:30;;;;;;;2.67;0.30;;;5.00;99.90;;;;;;6281609;22;20030;-91
2022/02/14 08:06:55;;;;;;;0.25;0.25;;;5.00;99.90;;;;;;6281892;22;20037;-93
2022/02/14 08:09:21;;;;;;;1.33;1.13;;;5.10;99.90;;;;;;6282674;22;20096;-91
2022/02/14 08:11:47;;;;;;;3.60;0.30;;;5.10;99.90;;;;;;6308539;22;20094;-90
2022/02/14 08:14:13;;;;;;;1.10;0.60;;;5.10;99.90;;;;;;6281965;22;20006;-91
2022/02/14 08:16:40;;;;;;;3.40;0.50;;;5.10;99.90;;;;;;6282283;22;20007;-91
2022/02/14 08:19:07;;;;;;;0.40;0.30;;;5.10;99.90;;;;;;6280966;22;20007;-93
2022/02/14 08:21:34;;;;;;;1.90;0.45;;;5.10;99.90;;;;;;6281703;22;20081;-91
2022/02/14 08:24:00;;;;;;;0.20;0.20;;;5.20;99.90;;;;;;6281048;22;20007;-92
2022/02/14 08:26:26;;;;;;;3.40;0.77;;;5.20;99.90;;;;;;6280555;22;20023;-91
2022/02/14 08:28:52;;;;;;;2.05;0.70;;;5.20;99.90;;;;;;6281700;22;19999;-91
2022/02/14 08:31:18;;;;;;;0.98;0.50;;;5.20;99.90;;;;;;6282886;22;20319;-91
2022/02/14 08:33:44;;;;;;;5.30;0.63;;;5.20;99.90;;;;;;6283598;22;20019;-92
2022/02/14 08:36:11;;;;;;;1.13;0.60;;;5.20;99.90;;;;;;6315352;22;20003;-94
2022/02/14 08:38:37;;;;;;;2.58;0.75;;;5.20;99.90;;;;;;6313919;22;19999;-90
2022/02/14 08:41:04;;;;;;;1.48;0.60;;;5.20;99.90;;;;;;6284274;22;20007;-90
2022/02/14 08:43:30;;;;;;;1.77;0.30;;;5.20;99.90;;;;;;6283266;22;20007;-90
2022/02/14 08:45:57;;;;;;;0.95;0.85;;;5.20;99.90;;;;;;6282986;22;20059;-91
2022/02/14 08:48:23;;;;;;;1.83;0.60;;;5.20;99.90;;;;;;6280633;22;20018;-92
2022/02/14 08:50:49;;;;;;;1.88;0.68;;;5.20;99.90;;;;;;6284216;22;20007;-91
2022/02/14 08:53:17;;;;;;;0.45;0.35;;;5.30;99.90;;;;;;6283235;22;20014;-92
2022/02/14 08:55:43;;;;;;;3.25;0.57;;;5.30;99.90;;;;;;6283548;22;20038;-90
2022/02/14 08:58:09;;;;;;;2.60;0.60;;;5.20;99.90;;;;;;6283515;22;20007;-92
2022/02/14 09:00:35;;;;;;;0.20;0.20;;;5.30;99.90;;;;;;6283526;22;20029;-91
2022/02/14 09:03:00;;;;;;;0.75;0.45;;;5.30;99.90;;;;;;6283862;22;20093;-92
2022/02/14 09:05:27;;;;;;;3.05;0.60;;;5.30;99.90;;;;;;6295012;22;20066;-91
2022/02/14 09:07:53;;;;;;;4.55;1.00;;;5.20;99.90;;;;;;6290073;22;20512;-92
2022/02/14 09:10:19;;;;;;;1.67;0.60;;;5.20;99.90;;;;;;6285409;22;20158;-91
2022/02/14 09:12:48;;;;;;;0.98;0.70;;;5.20;99.90;;;;;;6284896;22;20007;-92
2022/02/14 09:15:15;;;;;;;2.45;0.73;;;5.20;99.90;;;;;;6283680;22;20078;-92
2022/02/14 09:17:41;;;;;;;5.32;1.10;;;5.20;99.90;;;;;;6284061;22;20086;-91
2022/02/14 09:20:08;;;;;;;1.65;0.90;;;5.20;99.90;;;;;;6283594;22;20003;-92
2022/02/14 09:22:34;;;;;;;3.25;0.90;;;5.20;99.90;;;;;;6283533;22;20010;-92
2022/02/14 09:24:59;;;;;;;3.38;0.93;;;5.20;99.90;;;;;;6283499;22;20003;-93
2022/02/14 09:27:25;;;;;;;2.78;0.73;;;5.20;99.90;;;;;;6283123;22;20007;-91
2022/02/14 09:29:51;;;;;;;1.27;0.50;;;5.20;99.90;;;;;;6282941;22;19999;-91
2022/02/14 09:32:17;;;;;;;3.90;0.45;;;5.20;99.90;;;;;;6283584;22;20326;-93
2022/02/14 09:34:43;;;;;;;1.88;0.60;;;5.30;99.90;;;;;;6282982;22;20415;-93
2022/02/14 09:37:12;;;;;;;1.13;0.60;;;5.30;99.90;;;;;;6282724;22;20011;-94
2022/02/14 09:39:38;;;;;;;1.08;0.30;;;5.30;99.90;;;;;;6283211;22;20018;-93
2022/02/14 09:42:05;;;;;;;0.75;0.40;;;5.30;99.90;;;;;;6281778;22;20045;-92
2022/02/14 09:44:32;;;;;;;2.88;0.30;;;5.30;99.90;;;;;;6282914;22;19999;-93
2022/02/14 09:46:58;;;;;;;1.23;0.40;;;5.30;99.90;;;;;;6283204;22;20014;-92
2022/02/14 09:49:24;;;;;;;2.95;0.32;;;5.40;99.90;;;;;;6282799;22;20034;-92
2022/02/14 09:51:53;;;;;;;0.70;0.20;;;5.40;99.90;;;;;;6283083;22;20052;-92
2022/02/14 09:54:20;;;;;;;0.10;0.10;;;5.30;99.90;;;;;;6283149;22;20003;-92
2022/02/14 09:56:46;;;;;;;2.40;0.40;;;5.30;99.90;;;;;;6310555;22;20018;-91
2022/02/14 09:59:14;;;;;;;3.33;0.45;;;5.30;99.90;;;;;;6282108;22;19999;-92
2022/02/14 10:01:40;;;;;;;0.40;0.40;;;5.30;99.90;;;;;;6282912;22;19999;-91
2022/02/14 10:04:06;;;;;;;0.20;0.20;;;5.30;99.90;;;;;;6282774;22;20007;-93
2022/02/14 10:06:37;;;;;;;0.13;0.13;;;5.20;99.90;;;;;;6282198;22;20011;-92
2022/02/14 10:09:19;;;;;;;0.20;0.20;;;5.30;99.90;;;;;;6282175;22;19999;-91
2022/02/14 10:12:11;;;;;;;0.30;0.30;;;5.30;99.90;;;;;;6283540;22;20003;-93
2022/02/14 10:14:37;;;;;;;0.85;0.15;;;5.20;99.90;;;;;;6283751;22;20007;-91
2022/02/14 10:17:05;;;;;;;0.10;0.10;;;5.20;99.90;;;;;;6286511;22;20007;-92
2022/02/14 10:19:34;;;;;;;0.35;0.20;;;5.20;99.90;;;;;;6286413;22;20006;-93
2022/02/14 10:22:05;;;;;;;1.30;0.20;;;5.20;99.90;;;;;;6289585;22;20019;-91
2022/02/14 10:24:44;;;;;;;0.30;0.30;;;5.20;99.90;;;;;;6292306;22;20014;-92
2022/02/14 10:27:11;;;;;;;0.75;0.20;;;5.20;99.90;;;;;;6263012;22;20027;-91
2022/02/14 10:29:38;;;;;;;1.15;0.40;;;5.10;99.90;;;;;;6283358;22;20010;-93
2022/02/14 10:32:21;;;;;;;1.55;0.30;;;5.10;99.90;;;;;;6281977;22;20019;-92
2022/02/14 10:34:54;;;;;;;0.35;0.20;;;5.10;99.90;;;;;;6283166;22;20007;-91
2022/02/14 10:37:36;;;;;;;0.93;0.20;;;5.10;99.90;;;;;;6282396;22;20054;-92
2022/02/14 10:40:03;;;;;;;2.15;0.40;;;5.10;99.90;;;;;;6282300;22;20000;-93
2022/02/14 10:42:37;;;;;;;1.75;0.30;;;5.00;99.90;;;;;;6281869;22;20063;-93
2022/02/14 10:45:08;;;;;;;0.32;0.30;;;5.00;99.90;;;;;;6281224;22;20007;-93
2022/02/14 10:47:36;;;;;;;0.30;0.30;;;5.00;99.90;;;;;;6281291;22;20011;-93
2022/02/14 10:50:07;;;;;;;0.82;0.30;;;5.00;99.90;;;;;;6281216;22;20007;-91
2022/02/14 10:52:53;;;;;;;0.43;0.40;;;5.00;99.90;;;;;;6280854;22;20008;-93
2022/02/14 10:55:22;;;;;;;1.17;0.28;;;5.00;99.90;;;;;;6281971;22;19995;-92
2022/02/14 10:57:50;;;;;;;1.85;0.30;;;5.00;99.90;;;;;;6281349;22;20034;-93
2022/02/14 11:00:17;;;;;;;0.90;0.30;;;5.00;99.90;;;;;;6281768;22;20056;-93
2022/02/14 11:02:51;;;;;;;1.98;0.30;;;5.00;99.90;;;;;;6281693;22;20011;-92
2022/02/14 11:05:18;;;;;;;0.28;0.25;;;5.00;99.90;;;;;;6308067;22;20000;-91
2022/02/14 11:07:45;;;;;;;0.30;0.22;;;5.00;99.90;;;;;;6280384;22;20098;-92
2022/02/14 11:10:14;;;;;;;3.10;0.40;;;5.00;99.90;;;;;;6280850;22;20082;-92
2022/02/14 11:12:46;;;;;;;0.93;0.20;;;5.10;99.90;;;;;;6281010;22;20061;-93
2022/02/14 11:15:12;;;;;;;0.82;0.30;;;5.20;99.90;;;;;;6281174;22;19995;-91
2022/02/14 11:17:44;;;;;;;1.55;0.50;;;5.20;99.90;;;;;;6280901;22;20109;-93
2022/02/14 11:20:11;;;;;;;1.48;0.63;;;5.20;99.90;;;;;;6281130;22;19999;-93
2022/02/14 11:22:40;;;;;;;0.55;0.30;;;5.20;99.90;;;;;;6282062;22;20015;-93
2022/02/14 11:25:34;;;;;;;0.30;0.30;;;5.20;99.90;;;;;;6281676;22;20033;-92
2022/02/14 11:28:36;;;;;;;0.30;0.30;;;5.20;99.90;;;;;;6281465;22;20045;-93
2022/02/14 11:31:14;;;;;;;1.63;0.25;;;5.20;99.90;;;;;;6281775;22;20426;-93
2022/02/14 11:33:56;;;;;;;0.38;0.20;;;5.20;99.90;;;;;;6280674;22;20065;-94
2022/02/14 11:36:24;;;;;;;0.15;0.15;;;5.20;99.90;;;;;;6280634;22;20065;-92
2022/02/14 11:38:56;;;;;;;0.20;0.20;;;5.20;99.90;;;;;;6288797;22;20023;-93
2022/02/14 11:41:35;;;;;;;0.40;0.30;;;5.30;99.90;;;;;;6290757;22;20010;-93
2022/02/14 11:44:14;;;;;;;0.15;0.15;;;5.30;99.90;;;;;;6282259;22;20102;-94
2022/02/14 11:46:47;;;;;;;0.43;0.10;;;5.40;99.90;;;;;;6280964;22;20018;-91
2022/02/14 11:49:21;;;;;;;0.20;0.20;;;5.40;99.90;;;;;;6281029;22;20003;-91
2022/02/14 11:51:53;;;;;;;0.88;0.30;;;5.40;99.90;;;;;;6280757;22;20003;-92
2022/02/14 11:54:37;;;;;;;0.10;0.10;;;5.40;99.90;;;;;;6281130;22;20007;-92
2022/02/14 11:57:22;;;;;;;0.30;0.20;;;5.40;99.90;;;;;;6279655;22;20003;-92
2022/02/14 11:59:49;;;;;;;0.05;0.05;;;5.40;99.90;;;;;;6280529;22;20014;-92
2022/02/14 12:02:25;;;;;;;0.20;0.10;;;5.40;99.90;;;;;;6280358;22;20210;-92
2022/02/14 12:04:51;;;;;;;1.25;0.10;;;5.40;99.90;;;;;;6280845;22;20007;-91
2022/02/14 12:07:20;;;;;;;0.17;0.10;;;5.30;99.90;;;;;;6281033;22;20015;-92
2022/02/14 12:09:58;;;;;;;0.52;0.20;;;5.30;99.90;;;;;;6279173;22;20011;-91
2022/02/14 12:12:39;;;;;;;0.32;0.10;;;5.20;99.90;;;;;;6279750;22;20077;-91
2022/02/14 12:20:41;;;;;;;0.57;0.15;;;5.10;99.90;;;;;;6307623;22;20385;-90
2022/02/14 12:23:08;;;;;;;0.45;0.10;;;5.00;99.90;;;;;;6281124;22;20004;-90
2022/02/14 12:25:35;;;;;;;0.20;0.20;;;5.00;99.90;;;;;;6280230;22;20015;-91
2022/02/14 12:28:07;;;;;;;0.57;0.10;;;4.90;99.90;;;;;;6281123;22;20011;-92
2022/02/14 12:30:33;;;;;;;0.30;0.10;;;4.90;99.90;;;;;;6280811;22;20037;-90
2022/02/14 12:33:11;;;;;;;2.10;0.20;;;4.90;99.90;;;;;;6280092;22;20099;-90
2022/02/14 12:35:44;;;;;;;0.88;0.25;;;4.80;99.90;;;;;;6280554;22;20387;-91
2022/02/14 12:38:11;;;;;;;0.10;0.10;;;4.80;99.90;;;;;;6280283;22;20011;-91
2022/02/14 12:40:57;;;;;;;0.10;0.10;;;4.70;99.90;;;;;;6280770;22;20009;-93
2022/02/14 12:43:27;;;;;;;0.73;0.15;;;4.60;99.90;;;;;;6280631;22;20291;-92
2022/02/14 12:45:55;;;;;;;0.10;0.10;;;4.50;99.90;;;;;;6280556;22;20312;-92
2022/02/14 12:48:38;;;;;;;0.63;0.20;;;4.50;99.90;;;;;;6280349;22;20011;-93
2022/02/14 12:51:05;;;;;;;0.20;0.17;;;4.50;99.90;;;;;;6280628;22;20007;-92
2022/02/14 12:53:32;;;;;;;0.35;0.15;;;4.50;99.90;;;;;;6280529;22;20007;-92
2022/02/14 12:56:19;;;;;;;0.10;0.10;;;4.50;99.90;;;;;;6289850;22;20056;-93
2022/02/14 12:58:59;;;;;;;0.10;0.10;;;4.50;99.90;;;;;;6280824;22;20018;-92
2022/02/14 13:01:27;;;;;;;0.10;0.10;;;4.40;99.90;;;;;;6281372;22;20034;-92
2022/02/14 13:04:10;;;;;;;0.10;0.10;;;4.40;99.90;;;;;;6280997;22;20003;-93
2022/02/14 13:06:49;;;;;;;0.10;0.10;;;4.50;99.90;;;;;;6308066;22;20007;-92